Decoded Metar for KC62 ( in ) (IATA:) | Meteo·Mobile Aviation Weather
aviador You're here:

KC62 Decoded Metar

in
Report Time2019-10-19 22:55:00
UTC Time2019-10-19 22:48:03
Flight Rules vfr VFR
Wind130° at 04 kt
Visibility9999 m
Phenomena:N/A
Clouds:N/A
Expected CloudBase > 4,400 ft AGL from Temp-Dew spread
CeilingNone
Temp14°C
Dew Point03°C (48% RH)
AAT11.1°C
QNH1009 hPa
Raw Report
METAR KC62 192255Z AUTO 13004KT 10SM CLR 14/03 A2979 RMK AO2 T01420036=

Extra information for KC62:More info

Social comments